»·PEaware :: N168JC KSAT-KVNY

N168JC :: KSAT-KVNY

FLIGHT INFORMATION

Flight Status: Arrived
Operator: Privately registered:
United States
More flights under this callsign
Pilot: Chris A. (85)
Aircraft: EMBRAER PHENOM 300
(E55P)
More flights by this aircraft type
Origin: KSAT San Antonio Intl
United States
Destination: KVNY Van Nuys
United States
More flights between these airports :: More routes between these airports
Route: +ALISS5 ALISS ELP BUGGA JANNY3
File this flight plan on PilotEdge
Remarks: PBN / B2B3B4C1D1O1S2 DOF / 180410 SUR / 260B CODE / 050210
Altitude:
(Current/Filed)
40,000ft
Speed:
(Current/Filed)
418kts
Departed: 10-Apr-18 12:34 PM
Arrived: 10-Apr-18 02:49 PM
Distance/Time
Traveled:
1056nm/2:15
Distance/Time
To Go:
Arrived

Flight Plot

Page will automatically refresh every two minutes.

Flight plan parsing failed; only flown route is shown


Map Options




Map Legend


Flown Route
Filed Route
Departure Airport
Arrival Airport
Navaid (VOR, NDB)
Fix

Horizontal Profiles

Position Reports

Time Latitude Longitude Heading Altitude Ground
Speed
10-Apr-18 12:32 31.034252 -102.554313 288 40328ft 402kts
10-Apr-18 12:33 31.062696 -102.680459 288 40326ft 403kts
10-Apr-18 12:34 31.091129 -102.807191 288 40324ft 403kts
10-Apr-18 12:35 31.119341 -102.933558 288 40324ft 403kts
10-Apr-18 12:36 31.147437 -103.060044 288 40327ft 403kts
10-Apr-18 12:37 31.175512 -103.187069 288 40326ft 403kts
10-Apr-18 12:38 31.203386 -103.313824 288 40321ft 403kts
10-Apr-18 12:39 31.231130 -103.440637 288 40318ft 403kts
10-Apr-18 12:40 31.258832 -103.567904 288 40315ft 403kts
10-Apr-18 12:41 31.286282 -103.694665 288 40316ft 403kts
10-Apr-18 12:42 31.313686 -103.821864 288 40318ft 402kts
10-Apr-18 12:43 31.340839 -103.948557 288 40332ft 401kts
10-Apr-18 12:44 31.367844 -104.075201 288 40345ft 402kts
10-Apr-18 12:45 31.394839 -104.202472 288 40349ft 402kts
10-Apr-18 12:46 31.421623 -104.329417 288 40358ft 402kts
10-Apr-18 12:47 31.448372 -104.456867 288 40371ft 402kts
10-Apr-18 12:48 31.474916 -104.584016 288 40382ft 402kts
10-Apr-18 12:49 31.501344 -104.711287 288 40390ft 402kts
10-Apr-18 12:50 31.527751 -104.839131 287 40397ft 403kts
10-Apr-18 12:51 31.553971 -104.966774 287 40400ft 403kts
10-Apr-18 12:52 31.580062 -105.094483 287 40397ft 403kts
10-Apr-18 12:53 31.606134 -105.222793 287 40391ft 403kts
10-Apr-18 12:54 31.631980 -105.350694 287 40377ft 403kts
10-Apr-18 12:55 31.657668 -105.478524 287 40362ft 402kts
10-Apr-18 12:56 31.683271 -105.606629 287 40349ft 402kts
10-Apr-18 12:57 31.708646 -105.734308 287 40338ft 402kts
10-Apr-18 12:58 31.733955 -105.862374 287 40329ft 401kts
10-Apr-18 12:59 31.759039 -105.990012 287 40321ft 401kts
10-Apr-18 13:00 31.783947 -106.117476 287 40314ft 400kts
10-Apr-18 13:01 31.808800 -106.245376 287 40310ft 401kts
10-Apr-18 13:02 31.846098 -106.367023 296 40303ft 395kts
10-Apr-18 13:03 31.888461 -106.486243 296 40303ft 395kts
10-Apr-18 13:04 31.930881 -106.606157 296 40282ft 396kts
10-Apr-18 13:05 31.973046 -106.725794 296 40283ft 396kts
10-Apr-18 13:06 32.015218 -106.845885 296 40297ft 395kts
10-Apr-18 13:07 32.056948 -106.965135 296 40303ft 393kts
10-Apr-18 13:08 32.098522 -107.084366 296 40304ft 394kts
10-Apr-18 13:09 32.140153 -107.204201 296 40301ft 394kts
10-Apr-18 13:10 32.181512 -107.323691 296 40295ft 393kts
10-Apr-18 13:11 32.222735 -107.443217 296 40289ft 393kts
10-Apr-18 13:12 32.263834 -107.562823 296 40284ft 393kts
10-Apr-18 13:13 32.304955 -107.682927 296 40284ft 393kts
10-Apr-18 13:14 32.345866 -107.802867 296 40285ft 394kts
10-Apr-18 13:15 32.386799 -107.923316 296 40299ft 394kts
10-Apr-18 13:16 32.427478 -108.043461 296 40322ft 394kts
10-Apr-18 13:17 32.468184 -108.164136 296 40339ft 394kts
10-Apr-18 13:18 32.508644 -108.284533 296 40342ft 394kts
10-Apr-18 13:19 32.548970 -108.404986 296 40338ft 393kts
10-Apr-18 13:20 32.589294 -108.525881 296 40327ft 393kts
10-Apr-18 13:21 32.629375 -108.646507 296 40312ft 393kts
10-Apr-18 13:22 32.669349 -108.767269 296 40295ft 394kts
10-Apr-18 13:23 32.709362 -108.888609 296 40272ft 394kts
10-Apr-18 13:24 32.749091 -109.009554 296 40248ft 393kts
10-Apr-18 13:25 32.788820 -109.130962 296 40226ft 393kts
10-Apr-18 13:26 32.828312 -109.252110 296 40207ft 393kts
10-Apr-18 13:27 32.867686 -109.373368 296 40196ft 393kts
10-Apr-18 13:28 32.907112 -109.495255 296 40188ft 394kts
10-Apr-18 13:29 32.946293 -109.616868 296 40184ft 393kts
10-Apr-18 13:30 32.985326 -109.738485 296 40184ft 393kts
10-Apr-18 13:31 33.024347 -109.860553 296 40187ft 393kts
10-Apr-18 13:32 33.063077 -109.982181 296 40192ft 393kts
10-Apr-18 13:33 33.101706 -110.103976 295 40183ft 393kts
10-Apr-18 13:34 33.140368 -110.226361 295 40182ft 393kts
10-Apr-18 13:35 33.178765 -110.348393 295 40180ft 393kts
10-Apr-18 13:36 33.217072 -110.470628 295 40177ft 393kts
10-Apr-18 13:37 33.255388 -110.593387 295 40171ft 393kts
10-Apr-18 13:38 33.293434 -110.715769 294 40156ft 393kts
10-Apr-18 13:39 33.331519 -110.838776 294 40133ft 393kts
10-Apr-18 13:40 33.369339 -110.961430 294 40111ft 393kts
10-Apr-18 13:41 33.407004 -111.084073 294 40101ft 393kts
10-Apr-18 13:42 33.444657 -111.207189 294 40094ft 393kts
10-Apr-18 13:43 33.482048 -111.329949 293 40093ft 392kts
10-Apr-18 13:44 33.519277 -111.452677 293 40084ft 392kts
10-Apr-18 13:45 33.556523 -111.575977 293 40072ft 392kts
10-Apr-18 13:46 33.593451 -111.698737 293 40070ft 391kts
10-Apr-18 13:47 33.630372 -111.821976 292 40064ft 392kts
10-Apr-18 13:48 33.667024 -111.944840 292 40062ft 391kts
10-Apr-18 13:49 33.703537 -112.067747 292 40054ft 391kts
10-Apr-18 13:50 33.740003 -112.191016 292 40057ft 390kts
10-Apr-18 13:51 33.776230 -112.313990 292 40063ft 391kts
10-Apr-18 13:52 33.812386 -112.437253 292 40063ft 391kts
10-Apr-18 13:53 33.848569 -112.561130 292 40055ft 391kts
10-Apr-18 13:54 33.884510 -112.684708 292 40062ft 392kts
10-Apr-18 13:55 33.920450 -112.808817 291 40088ft 392kts
10-Apr-18 13:56 33.956168 -112.932698 291 40094ft 392kts
10-Apr-18 13:57 33.991776 -113.056732 291 40097ft 392kts
10-Apr-18 13:58 34.027265 -113.180893 290 40097ft 390kts
10-Apr-18 13:59 34.062374 -113.304259 290 40094ft 389kts
10-Apr-18 14:00 34.097342 -113.427667 290 40087ft 389kts
10-Apr-18 14:01 34.132353 -113.551768 290 40079ft 390kts
10-Apr-18 14:02 34.167126 -113.675579 290 40069ft 390kts
10-Apr-18 14:03 34.201929 -113.800041 289 40059ft 390kts
10-Apr-18 14:04 34.236533 -113.924343 289 40036ft 391kts
10-Apr-18 14:05 34.271020 -114.048786 289 40027ft 391kts
10-Apr-18 14:06 34.305469 -114.173650 289 40023ft 390kts
10-Apr-18 14:07 34.339681 -114.298215 289 40019ft 390kts
10-Apr-18 14:08 34.373724 -114.422728 288 40013ft 389kts
10-Apr-18 14:09 34.407688 -114.547513 288 40012ft 389kts
10-Apr-18 14:10 34.441390 -114.671912 288 40012ft 389kts
10-Apr-18 14:11 34.475015 -114.796586 287 40021ft 388kts
10-Apr-18 14:12 34.508367 -114.920821 287 40026ft 388kts
10-Apr-18 14:13 34.536043 -115.024349 287 40031ft 387kts
10-Apr-18 14:14 34.569202 -115.148914 287 40040ft 387kts
10-Apr-18 14:15 34.602125 -115.273169 286 40052ft 387kts
10-Apr-18 14:16 34.634895 -115.397418 286 40066ft 386kts
10-Apr-18 14:17 34.667972 -115.523441 286 38499ft 394kts
10-Apr-18 14:18 34.706836 -115.672255 286 36169ft 398kts
10-Apr-18 14:19 34.732044 -115.804245 280 34167ft 402kts
10-Apr-18 14:20 34.752592 -115.938836 279 32048ft 407kts
10-Apr-18 14:21 34.769762 -116.052040 279 30143ft 412kts
10-Apr-18 14:22 34.790454 -116.189568 278 27748ft 413kts
10-Apr-18 14:23 34.795156 -116.328586 267 25473ft 414kts
10-Apr-18 14:24 34.790385 -116.470583 266 23522ft 425kts
10-Apr-18 14:25 34.783444 -116.612129 262 22795ft 423kts
10-Apr-18 14:26 34.768225 -116.756861 262 22072ft 433kts
10-Apr-18 14:27 34.753785 -116.902162 262 21314ft 438kts
10-Apr-18 14:28 34.739365 -117.044226 261 19993ft 405kts
10-Apr-18 14:29 34.725545 -117.178944 261 18794ft 404kts
10-Apr-18 14:30 34.711372 -117.315681 261 17594ft 408kts
10-Apr-18 14:31 34.697011 -117.452719 261 16397ft 410kts
10-Apr-18 14:32 34.682450 -117.590092 261 15314ft 410kts
10-Apr-18 14:33 34.668110 -117.725245 261 14310ft 398kts
10-Apr-18 14:34 34.654124 -117.856167 261 14039ft 385kts
10-Apr-18 14:35 34.640098 -117.985160 261 12930ft 386kts
10-Apr-18 14:36 34.621152 -118.110207 254 11536ft 360kts
10-Apr-18 14:37 34.596111 -118.222762 253 10138ft 330kts
10-Apr-18 14:38 34.573835 -118.322444 253 8733ft 293kts
10-Apr-18 14:39 34.553240 -118.414187 253 8082ft 267kts
10-Apr-18 14:40 34.534382 -118.498832 253 7212ft 249kts
10-Apr-18 14:41 34.514046 -118.574064 231 6127ft 219kts
10-Apr-18 14:42 34.464715 -118.561721 143 5282ft 199kts
10-Apr-18 14:43 34.417180 -118.537634 167 4753ft 190kts
10-Apr-18 14:44 34.363934 -118.522937 166 4034ft 197kts
10-Apr-18 14:45 34.312702 -118.507308 165 3063ft 174kts
10-Apr-18 14:46 34.270308 -118.496115 172 2214ft 160kts
10-Apr-18 14:47 34.231535 -118.492346 173 1129ft 125kts
10-Apr-18 14:48 34.207004 -118.489971 170 805ft 12kts
10-Apr-18 14:49 34.206269 -118.488310 181 805ft 6kts
10-Apr-18 14:50 34.205861 -118.487583 177 805ft 0kts
10-Apr-18 14:51 34.205861 -118.487583 177 805ft 0kts
10-Apr-18 14:52 34.205861 -118.487583 177 805ft 0kts

Navigation Log

Ident Type
Flight plan parsing failed, navigation log unavailable